sensor_id;sensor_type;location;lat;lon;timestamp;temperature;humidity
39503;DHT22;26970;49.900;10.774;2022-08-18T00:02:19;20.80;99.90
39503;DHT22;26970;49.900;10.774;2022-08-18T00:04:46;20.70;99.90
39503;DHT22;26970;49.900;10.774;2022-08-18T00:07:16;20.70;99.90
39503;DHT22;26970;49.900;10.774;2022-08-18T00:09:42;20.60;99.90
39503;DHT22;26970;49.900;10.774;2022-08-18T00:12:20;20.60;99.90
39503;DHT22;26970;49.900;10.774;2022-08-18T00:14:46;20.50;99.90
39503;DHT22;26970;49.900;10.774;2022-08-18T00:17:13;20.50;99.90
39503;DHT22;26970;49.900;10.774;2022-08-18T00:19:39;20.40;99.90
39503;DHT22;26970;49.900;10.774;2022-08-18T00:22:05;20.40;99.90
39503;DHT22;26970;49.900;10.774;2022-08-18T00:24:30;20.40;99.90
39503;DHT22;26970;49.900;10.774;2022-08-18T00:26:56;20.40;99.90
39503;DHT22;26970;49.900;10.774;2022-08-18T00:29:22;20.50;99.90
39503;DHT22;26970;49.900;10.774;2022-08-18T00:31:48;20.60;99.90
39503;DHT22;26970;49.900;10.774;2022-08-18T00:34:13;20.70;99.90
39503;DHT22;26970;49.900;10.774;2022-08-18T00:36:39;20.70;99.90
39503;DHT22;26970;49.900;10.774;2022-08-18T00:39:05;20.80;99.90
39503;DHT22;26970;49.900;10.774;2022-08-18T00:41:31;20.80;99.90
39503;DHT22;26970;49.900;10.774;2022-08-18T00:43:57;20.80;99.90
39503;DHT22;26970;49.900;10.774;2022-08-18T00:46:28;20.80;99.90
39503;DHT22;26970;49.900;10.774;2022-08-18T00:48:55;20.80;99.90
39503;DHT22;26970;49.900;10.774;2022-08-18T00:51:29;20.80;99.90
39503;DHT22;26970;49.900;10.774;2022-08-18T00:54:05;20.80;99.90
39503;DHT22;26970;49.900;10.774;2022-08-18T00:56:37;20.90;99.90
39503;DHT22;26970;49.900;10.774;2022-08-18T00:59:13;20.80;99.90
39503;DHT22;26970;49.900;10.774;2022-08-18T01:01:41;20.70;99.90
39503;DHT22;26970;49.900;10.774;2022-08-18T01:04:13;20.70;99.90
39503;DHT22;26970;49.900;10.774;2022-08-18T01:06:54;20.70;99.90
39503;DHT22;26970;49.900;10.774;2022-08-18T01:09:21;20.60;99.90
39503;DHT22;26970;49.900;10.774;2022-08-18T01:11:47;20.60;99.90
39503;DHT22;26970;49.900;10.774;2022-08-18T01:14:13;20.90;99.90
39503;DHT22;26970;49.900;10.774;2022-08-18T01:16:44;21.10;99.90
39503;DHT22;26970;49.900;10.774;2022-08-18T01:19:28;21.00;99.90
39503;DHT22;26970;49.900;10.774;2022-08-18T01:25:00;21.20;99.90
39503;DHT22;26970;49.900;10.774;2022-08-18T01:27:44;21.50;99.20
39503;DHT22;26970;49.900;10.774;2022-08-18T01:30:15;21.70;98.90
39503;DHT22;26970;49.900;10.774;2022-08-18T01:32:41;22.00;98.90
39503;DHT22;26970;49.900;10.774;2022-08-18T01:35:11;22.00;98.90
39503;DHT22;26970;49.900;10.774;2022-08-18T01:37:38;22.10;99.20
39503;DHT22;26970;49.900;10.774;2022-08-18T01:40:07;22.00;99.60
39503;DHT22;26970;49.900;10.774;2022-08-18T01:42:35;21.80;99.80
39503;DHT22;26970;49.900;10.774;2022-08-18T01:45:02;21.80;99.90
39503;DHT22;26970;49.900;10.774;2022-08-18T01:47:29;21.80;99.90
39503;DHT22;26970;49.900;10.774;2022-08-18T01:49:56;21.80;99.90
39503;DHT22;26970;49.900;10.774;2022-08-18T01:52:23;21.90;99.90
39503;DHT22;26970;49.900;10.774;2022-08-18T01:54:50;21.70;99.90
39503;DHT22;26970;49.900;10.774;2022-08-18T01:57:18;21.80;99.90
39503;DHT22;26970;49.900;10.774;2022-08-18T01:59:44;21.80;99.90
39503;DHT22;26970;49.900;10.774;2022-08-18T02:02:13;21.90;99.90
39503;DHT22;26970;49.900;10.774;2022-08-18T02:04:41;21.80;99.90
39503;DHT22;26970;49.900;10.774;2022-08-18T02:07:10;21.70;99.90
39503;DHT22;26970;49.900;10.774;2022-08-18T02:09:38;21.80;99.90
39503;DHT22;26970;49.900;10.774;2022-08-18T02:12:06;21.80;99.90
39503;DHT22;26970;49.900;10.774;2022-08-18T02:14:36;21.80;99.90
39503;DHT22;26970;49.900;10.774;2022-08-18T02:17:04;21.80;99.90
39503;DHT22;26970;49.900;10.774;2022-08-18T02:19:34;21.70;99.90
39503;DHT22;26970;49.900;10.774;2022-08-18T02:22:01;21.60;99.90
39503;DHT22;26970;49.900;10.774;2022-08-18T02:24:27;21.70;99.90
39503;DHT22;26970;49.900;10.774;2022-08-18T02:26:52;21.70;99.90
39503;DHT22;26970;49.900;10.774;2022-08-18T02:29:18;21.60;99.90
39503;DHT22;26970;49.900;10.774;2022-08-18T02:31:43;21.70;99.90
39503;DHT22;26970;49.900;10.774;2022-08-18T02:34:09;21.70;99.90
39503;DHT22;26970;49.900;10.774;2022-08-18T02:36:34;21.60;99.90
39503;DHT22;26970;49.900;10.774;2022-08-18T02:39:00;21.70;99.90
39503;DHT22;26970;49.900;10.774;2022-08-18T02:41:26;21.70;99.90
39503;DHT22;26970;49.900;10.774;2022-08-18T02:43:52;21.80;99.90
39503;DHT22;26970;49.900;10.774;2022-08-18T02:46:18;21.80;99.90
39503;DHT22;26970;49.900;10.774;2022-08-18T02:48:43;21.70;99.90
39503;DHT22;26970;49.900;10.774;2022-08-18T02:51:13;21.70;99.90
39503;DHT22;26970;49.900;10.774;2022-08-18T02:53:41;21.70;99.90
39503;DHT22;26970;49.900;10.774;2022-08-18T02:56:09;21.80;99.90
39503;DHT22;26970;49.900;10.774;2022-08-18T02:58:50;21.70;99.90
39503;DHT22;26970;49.900;10.774;2022-08-18T03:01:18;21.60;99.90
39503;DHT22;26970;49.900;10.774;2022-08-18T03:03:44;21.70;99.90
39503;DHT22;26970;49.900;10.774;2022-08-18T03:06:09;21.60;99.90
39503;DHT22;26970;49.900;10.774;2022-08-18T03:08:35;21.60;99.90
39503;DHT22;26970;49.900;10.774;2022-08-18T03:11:00;21.50;99.90
39503;DHT22;26970;49.900;10.774;2022-08-18T03:13:26;21.50;99.90
39503;DHT22;26970;49.900;10.774;2022-08-18T03:15:52;21.50;99.90
39503;DHT22;26970;49.900;10.774;2022-08-18T03:18:17;21.40;99.90
39503;DHT22;26970;49.900;10.774;2022-08-18T03:20:43;21.30;99.90
39503;DHT22;26970;49.900;10.774;2022-08-18T03:23:10;21.40;99.90
39503;DHT22;26970;49.900;10.774;2022-08-18T03:25:42;21.40;99.90
39503;DHT22;26970;49.900;10.774;2022-08-18T03:28:07;21.30;99.90
39503;DHT22;26970;49.900;10.774;2022-08-18T03:30:33;21.30;99.90
39503;DHT22;26970;49.900;10.774;2022-08-18T03:32:58;21.40;99.90
39503;DHT22;26970;49.900;10.774;2022-08-18T03:35:24;21.40;99.90
39503;DHT22;26970;49.900;10.774;2022-08-18T03:37:50;21.50;99.90
39503;DHT22;26970;49.900;10.774;2022-08-18T03:40:15;21.50;99.90
39503;DHT22;26970;49.900;10.774;2022-08-18T03:42:41;21.40;99.90
39503;DHT22;26970;49.900;10.774;2022-08-18T03:45:07;21.40;99.90
39503;DHT22;26970;49.900;10.774;2022-08-18T03:47:32;21.40;99.90
39503;DHT22;26970;49.900;10.774;2022-08-18T03:49:58;21.30;99.90
39503;DHT22;26970;49.900;10.774;2022-08-18T03:52:24;21.20;99.90
39503;DHT22;26970;49.900;10.774;2022-08-18T03:54:49;21.20;99.90
39503;DHT22;26970;49.900;10.774;2022-08-18T03:57:15;21.20;99.90
39503;DHT22;26970;49.900;10.774;2022-08-18T03:59:40;21.30;99.90
39503;DHT22;26970;49.900;10.774;2022-08-18T04:02:09;21.30;99.90
39503;DHT22;26970;49.900;10.774;2022-08-18T04:04:35;21.20;99.90
39503;DHT22;26970;49.900;10.774;2022-08-18T04:07:06;21.00;99.90
39503;DHT22;26970;49.900;10.774;2022-08-18T04:09:33;20.70;99.90
39503;DHT22;26970;49.900;10.774;2022-08-18T04:12:06;20.40;99.90
39503;DHT22;26970;49.900;10.774;2022-08-18T04:14:38;20.10;99.90
39503;DHT22;26970;49.900;10.774;2022-08-18T04:17:04;19.90;99.90
39503;DHT22;26970;49.900;10.774;2022-08-18T04:22:06;19.70;99.90
39503;DHT22;26970;49.900;10.774;2022-08-18T04:24:32;19.50;99.90
39503;DHT22;26970;49.900;10.774;2022-08-18T04:27:01;19.30;99.90
39503;DHT22;26970;49.900;10.774;2022-08-18T04:29:27;19.20;99.90
39503;DHT22;26970;49.900;10.774;2022-08-18T04:31:53;19.20;99.90
39503;DHT22;26970;49.900;10.774;2022-08-18T04:34:20;19.10;99.90
39503;DHT22;26970;49.900;10.774;2022-08-18T04:36:48;19.00;99.90
39503;DHT22;26970;49.900;10.774;2022-08-18T04:39:14;18.90;99.90
39503;DHT22;26970;49.900;10.774;2022-08-18T04:41:42;18.90;99.90
39503;DHT22;26970;49.900;10.774;2022-08-18T04:44:08;18.90;99.90
39503;DHT22;26970;49.900;10.774;2022-08-18T04:46:40;18.90;99.90
39503;DHT22;26970;49.900;10.774;2022-08-18T04:49:08;18.70;99.90
39503;DHT22;26970;49.900;10.774;2022-08-18T04:51:35;18.50;99.90
39503;DHT22;26970;49.900;10.774;2022-08-18T04:54:00;18.50;99.90
39503;DHT22;26970;49.900;10.774;2022-08-18T04:56:31;18.40;99.90
39503;DHT22;26970;49.900;10.774;2022-08-18T04:59:03;18.40;99.90
39503;DHT22;26970;49.900;10.774;2022-08-18T05:01:39;18.50;99.90
39503;DHT22;26970;49.900;10.774;2022-08-18T05:04:07;18.50;99.90
39503;DHT22;26970;49.900;10.774;2022-08-18T05:06:33;18.60;99.90
39503;DHT22;26970;49.900;10.774;2022-08-18T05:09:02;18.70;99.90
39503;DHT22;26970;49.900;10.774;2022-08-18T05:11:30;18.70;99.90
39503;DHT22;26970;49.900;10.774;2022-08-18T05:14:00;18.70;99.90
39503;DHT22;26970;49.900;10.774;2022-08-18T05:16:26;18.90;99.90
39503;DHT22;26970;49.900;10.774;2022-08-18T05:18:53;19.10;99.90
39503;DHT22;26970;49.900;10.774;2022-08-18T05:21:19;19.10;99.90
39503;DHT22;26970;49.900;10.774;2022-08-18T05:23:47;19.00;99.90
39503;DHT22;26970;49.900;10.774;2022-08-18T05:26:14;19.00;99.90
39503;DHT22;26970;49.900;10.774;2022-08-18T05:28:42;18.80;99.90
39503;DHT22;26970;49.900;10.774;2022-08-18T05:31:28;18.70;99.90
39503;DHT22;26970;49.900;10.774;2022-08-18T05:33:54;18.50;99.90
39503;DHT22;26970;49.900;10.774;2022-08-18T05:39:27;18.30;99.90
39503;DHT22;26970;49.900;10.774;2022-08-18T05:44:35;18.20;99.90
39503;DHT22;26970;49.900;10.774;2022-08-18T05:49:31;18.10;99.90
39503;DHT22;26970;49.900;10.774;2022-08-18T05:52:02;18.10;99.90
39503;DHT22;26970;49.900;10.774;2022-08-18T05:54:37;18.00;99.90
39503;DHT22;26970;49.900;10.774;2022-08-18T05:57:24;18.10;99.90
39503;DHT22;26970;49.900;10.774;2022-08-18T05:59:52;18.10;99.90
39503;DHT22;26970;49.900;10.774;2022-08-18T06:02:41;18.20;99.90
39503;DHT22;26970;49.900;10.774;2022-08-18T06:05:14;18.20;99.90
39503;DHT22;26970;49.900;10.774;2022-08-18T06:07:57;18.30;99.90
39503;DHT22;26970;49.900;10.774;2022-08-18T06:10:23;18.30;99.90
39503;DHT22;26970;49.900;10.774;2022-08-18T06:12:53;18.30;99.90
39503;DHT22;26970;49.900;10.774;2022-08-18T06:34:25;17.90;99.90
39503;DHT22;26970;49.900;10.774;2022-08-18T06:37:07;17.90;99.90
39503;DHT22;26970;49.900;10.774;2022-08-18T06:39:40;18.00;99.90
39503;DHT22;26970;49.900;10.774;2022-08-18T06:42:08;18.10;99.90
39503;DHT22;26970;49.900;10.774;2022-08-18T06:52:36;18.40;99.90
39503;DHT22;26970;49.900;10.774;2022-08-18T06:55:09;18.50;99.90
39503;DHT22;26970;49.900;10.774;2022-08-18T06:57:58;18.60;99.90
39503;DHT22;26970;49.900;10.774;2022-08-18T07:00:30;18.70;99.90
39503;DHT22;26970;49.900;10.774;2022-08-18T07:03:08;18.70;99.90
39503;DHT22;26970;49.900;10.774;2022-08-18T07:05:36;18.80;99.90
39503;DHT22;26970;49.900;10.774;2022-08-18T07:08:31;18.80;99.90
39503;DHT22;26970;49.900;10.774;2022-08-18T07:13:38;19.00;99.90
39503;DHT22;26970;49.900;10.774;2022-08-18T07:16:29;19.10;99.90
39503;DHT22;26970;49.900;10.774;2022-08-18T07:19:09;19.10;99.90
39503;DHT22;26970;49.900;10.774;2022-08-18T07:21:36;19.20;99.90
39503;DHT22;26970;49.900;10.774;2022-08-18T07:24:17;19.40;99.90
39503;DHT22;26970;49.900;10.774;2022-08-18T07:27:12;20.00;99.90
39503;DHT22;26970;49.900;10.774;2022-08-18T07:32:27;19.90;99.90
39503;DHT22;26970;49.900;10.774;2022-08-18T07:34:56;20.00;99.90
39503;DHT22;26970;49.900;10.774;2022-08-18T07:37:34;20.20;99.90
39503;DHT22;26970;49.900;10.774;2022-08-18T07:42:38;20.30;99.90
39503;DHT22;26970;49.900;10.774;2022-08-18T07:45:14;20.50;99.90
39503;DHT22;26970;49.900;10.774;2022-08-18T07:47:55;20.40;99.90
39503;DHT22;26970;49.900;10.774;2022-08-18T07:50:22;20.40;99.90
39503;DHT22;26970;49.900;10.774;2022-08-18T07:55:34;20.30;99.90
39503;DHT22;26970;49.900;10.774;2022-08-18T07:58:19;20.20;99.90
39503;DHT22;26970;49.900;10.774;2022-08-18T08:06:21;20.60;99.90
39503;DHT22;26970;49.900;10.774;2022-08-18T08:09:02;20.60;99.90
39503;DHT22;26970;49.900;10.774;2022-08-18T08:11:44;20.70;99.90
39503;DHT22;26970;49.900;10.774;2022-08-18T08:19:43;21.30;99.90
39503;DHT22;26970;49.900;10.774;2022-08-18T08:24:55;21.30;99.90
39503;DHT22;26970;49.900;10.774;2022-08-18T08:28:13;21.50;99.90
39503;DHT22;26970;49.900;10.774;2022-08-18T08:30:19;21.60;99.90
39503;DHT22;26970;49.900;10.774;2022-08-18T08:35:57;21.10;99.90
39503;DHT22;26970;49.900;10.774;2022-08-18T08:38:37;21.10;99.90
39503;DHT22;26970;49.900;10.774;2022-08-18T08:41:12;21.10;99.90
39503;DHT22;26970;49.900;10.774;2022-08-18T08:43:56;21.10;99.90
39503;DHT22;26970;49.900;10.774;2022-08-18T08:46:27;21.10;99.90
39503;DHT22;26970;49.900;10.774;2022-08-18T08:49:06;21.20;99.90
39503;DHT22;26970;49.900;10.774;2022-08-18T08:51:47;21.50;99.90
39503;DHT22;26970;49.900;10.774;2022-08-18T08:54:23;21.70;99.90
39503;DHT22;26970;49.900;10.774;2022-08-18T08:56:52;21.80;99.90
39503;DHT22;26970;49.900;10.774;2022-08-18T08:59:21;21.90;99.90
39503;DHT22;26970;49.900;10.774;2022-08-18T09:04:52;21.80;99.90
39503;DHT22;26970;49.900;10.774;2022-08-18T09:16:44;22.30;99.90
39503;DHT22;26970;49.900;10.774;2022-08-18T09:24:51;22.50;99.90
39503;DHT22;26970;49.900;10.774;2022-08-18T09:27:32;22.70;99.90
39503;DHT22;26970;49.900;10.774;2022-08-18T09:30:01;22.70;99.90
39503;DHT22;26970;49.900;10.774;2022-08-18T09:37:46;22.10;99.90
39503;DHT22;26970;49.900;10.774;2022-08-18T09:40:33;22.30;99.90
39503;DHT22;26970;49.900;10.774;2022-08-18T09:43:33;22.30;99.90
39503;DHT22;26970;49.900;10.774;2022-08-18T09:46:01;22.20;99.90
39503;DHT22;26970;49.900;10.774;2022-08-18T09:48:34;22.20;99.90
39503;DHT22;26970;49.900;10.774;2022-08-18T09:56:13;23.00;99.90
39503;DHT22;26970;49.900;10.774;2022-08-18T09:58:50;23.20;99.90
39503;DHT22;26970;49.900;10.774;2022-08-18T10:06:41;23.40;99.90
39503;DHT22;26970;49.900;10.774;2022-08-18T10:11:54;23.20;99.90
39503;DHT22;26970;49.900;10.774;2022-08-18T10:14:50;23.30;99.90
39503;DHT22;26970;49.900;10.774;2022-08-18T10:20:29;23.40;99.90
39503;DHT22;26970;49.900;10.774;2022-08-18T10:22:58;23.40;99.90
39503;DHT22;26970;49.900;10.774;2022-08-18T10:25:36;23.40;99.90
39503;DHT22;26970;49.900;10.774;2022-08-18T10:28:07;23.40;99.90
39503;DHT22;26970;49.900;10.774;2022-08-18T10:33:02;23.50;99.90
39503;DHT22;26970;49.900;10.774;2022-08-18T10:38:18;23.80;99.90
39503;DHT22;26970;49.900;10.774;2022-08-18T10:40:57;24.00;99.90
39503;DHT22;26970;49.900;10.774;2022-08-18T10:43:36;24.30;99.90
39503;DHT22;26970;49.900;10.774;2022-08-18T10:46:04;24.30;99.90
39503;DHT22;26970;49.900;10.774;2022-08-18T10:48:39;24.40;99.90
39503;DHT22;26970;49.900;10.774;2022-08-18T10:54:04;24.30;99.90
39503;DHT22;26970;49.900;10.774;2022-08-18T10:56:40;24.20;99.90
39503;DHT22;26970;49.900;10.774;2022-08-18T10:59:12;24.00;99.90
39503;DHT22;26970;49.900;10.774;2022-08-18T11:01:53;23.90;99.90
39503;DHT22;26970;49.900;10.774;2022-08-18T11:04:27;24.00;99.90
39503;DHT22;26970;49.900;10.774;2022-08-18T11:07:03;24.10;99.90
39503;DHT22;26970;49.900;10.774;2022-08-18T11:09:30;23.80;99.90
39503;DHT22;26970;49.900;10.774;2022-08-18T11:11:59;23.90;99.90
39503;DHT22;26970;49.900;10.774;2022-08-18T11:14:59;23.80;99.90
39503;DHT22;26970;49.900;10.774;2022-08-18T11:19:53;24.20;99.90
39503;DHT22;26970;49.900;10.774;2022-08-18T11:22:30;24.70;99.90
39503;DHT22;26970;49.900;10.774;2022-08-18T11:24:56;24.40;99.90
39503;DHT22;26970;49.900;10.774;2022-08-18T11:27:25;24.40;99.90
39503;DHT22;26970;49.900;10.774;2022-08-18T11:29:51;24.10;99.90
39503;DHT22;26970;49.900;10.774;2022-08-18T11:32:30;24.00;99.90
39503;DHT22;26970;49.900;10.774;2022-08-18T11:35:00;24.10;99.90
39503;DHT22;26970;49.900;10.774;2022-08-18T11:37:48;24.40;99.90
39503;DHT22;26970;49.900;10.774;2022-08-18T11:42:54;24.40;99.90
39503;DHT22;26970;49.900;10.774;2022-08-18T11:45:24;24.40;99.90
39503;DHT22;26970;49.900;10.774;2022-08-18T11:56:14;24.50;99.90
39503;DHT22;26970;49.900;10.774;2022-08-18T11:58:46;24.60;99.90
39503;DHT22;26970;49.900;10.774;2022-08-18T12:07:00;24.50;99.90
39503;DHT22;26970;49.900;10.774;2022-08-18T12:12:06;24.70;99.90
39503;DHT22;26970;49.900;10.774;2022-08-18T12:17:30;24.90;99.90
39503;DHT22;26970;49.900;10.774;2022-08-18T12:19:57;25.00;99.90
39503;DHT22;26970;49.900;10.774;2022-08-18T12:22:29;25.10;99.90
39503;DHT22;26970;49.900;10.774;2022-08-18T12:24:56;24.90;99.90
39503;DHT22;26970;49.900;10.774;2022-08-18T12:27:24;25.00;99.90
39503;DHT22;26970;49.900;10.774;2022-08-18T12:29:51;25.10;99.90
39503;DHT22;26970;49.900;10.774;2022-08-18T12:32:18;25.10;99.90
39503;DHT22;26970;49.900;10.774;2022-08-18T12:34:45;25.00;99.90
39503;DHT22;26970;49.900;10.774;2022-08-18T12:37:15;25.00;99.90
39503;DHT22;26970;49.900;10.774;2022-08-18T12:39:41;25.00;99.90
39503;DHT22;26970;49.900;10.774;2022-08-18T12:42:07;25.00;99.90
39503;DHT22;26970;49.900;10.774;2022-08-18T12:44:33;25.10;99.90
39503;DHT22;26970;49.900;10.774;2022-08-18T12:47:00;25.20;99.90
39503;DHT22;26970;49.900;10.774;2022-08-18T12:49:26;25.20;99.90
39503;DHT22;26970;49.900;10.774;2022-08-18T12:51:51;25.40;99.90
39503;DHT22;26970;49.900;10.774;2022-08-18T12:54:19;25.40;99.90
39503;DHT22;26970;49.900;10.774;2022-08-18T12:56:49;25.60;99.90
39503;DHT22;26970;49.900;10.774;2022-08-18T12:59:15;25.70;99.90
39503;DHT22;26970;49.900;10.774;2022-08-18T13:01:41;25.90;99.90
39503;DHT22;26970;49.900;10.774;2022-08-18T13:04:07;26.00;99.90
39503;DHT22;26970;49.900;10.774;2022-08-18T13:06:37;26.00;99.90
39503;DHT22;26970;49.900;10.774;2022-08-18T13:09:03;26.00;99.90
39503;DHT22;26970;49.900;10.774;2022-08-18T13:11:28;26.40;99.90
39503;DHT22;26970;49.900;10.774;2022-08-18T13:13:54;26.20;99.90
39503;DHT22;26970;49.900;10.774;2022-08-18T13:16:20;25.80;99.90
39503;DHT22;26970;49.900;10.774;2022-08-18T13:18:46;25.70;99.90
39503;DHT22;26970;49.900;10.774;2022-08-18T13:21:14;25.40;99.90
39503;DHT22;26970;49.900;10.774;2022-08-18T13:23:40;25.30;99.90
39503;DHT22;26970;49.900;10.774;2022-08-18T13:26:08;25.30;99.90
39503;DHT22;26970;49.900;10.774;2022-08-18T13:28:37;25.30;99.90
39503;DHT22;26970;49.900;10.774;2022-08-18T13:31:03;25.30;99.90
39503;DHT22;26970;49.900;10.774;2022-08-18T13:33:29;25.30;99.90
39503;DHT22;26970;49.900;10.774;2022-08-18T13:35:56;25.40;99.90
39503;DHT22;26970;49.900;10.774;2022-08-18T13:38:22;25.60;99.90
39503;DHT22;26970;49.900;10.774;2022-08-18T13:40:50;25.70;99.90
39503;DHT22;26970;49.900;10.774;2022-08-18T13:43:18;26.00;99.90
39503;DHT22;26970;49.900;10.774;2022-08-18T13:45:45;26.30;99.90
39503;DHT22;26970;49.900;10.774;2022-08-18T13:48:14;26.50;99.90
39503;DHT22;26970;49.900;10.774;2022-08-18T13:50:40;26.70;99.90
39503;DHT22;26970;49.900;10.774;2022-08-18T13:53:11;26.60;99.90
39503;DHT22;26970;49.900;10.774;2022-08-18T13:55:38;26.40;99.90
39503;DHT22;26970;49.900;10.774;2022-08-18T13:58:03;26.30;99.90
39503;DHT22;26970;49.900;10.774;2022-08-18T14:00:29;26.30;99.90
39503;DHT22;26970;49.900;10.774;2022-08-18T14:02:55;26.30;99.90
39503;DHT22;26970;49.900;10.774;2022-08-18T14:05:23;26.30;99.90
39503;DHT22;26970;49.900;10.774;2022-08-18T14:07:48;26.10;99.90
39503;DHT22;26970;49.900;10.774;2022-08-18T14:10:14;26.20;99.90
39503;DHT22;26970;49.900;10.774;2022-08-18T14:12:40;26.20;99.90
39503;DHT22;26970;49.900;10.774;2022-08-18T14:15:10;26.40;99.90
39503;DHT22;26970;49.900;10.774;2022-08-18T14:17:36;26.30;99.90
39503;DHT22;26970;49.900;10.774;2022-08-18T14:20:03;26.30;99.90
39503;DHT22;26970;49.900;10.774;2022-08-18T14:22:52;26.30;99.90
39503;DHT22;26970;49.900;10.774;2022-08-18T14:25:37;26.30;99.90
39503;DHT22;26970;49.900;10.774;2022-08-18T14:28:22;26.30;99.90
39503;DHT22;26970;49.900;10.774;2022-08-18T14:30:48;26.20;99.90
39503;DHT22;26970;49.900;10.774;2022-08-18T14:33:18;26.40;99.90
39503;DHT22;26970;49.900;10.774;2022-08-18T14:35:43;26.20;99.90
39503;DHT22;26970;49.900;10.774;2022-08-18T14:38:09;26.20;99.90
39503;DHT22;26970;49.900;10.774;2022-08-18T14:40:35;26.40;99.90
39503;DHT22;26970;49.900;10.774;2022-08-18T14:43:03;26.60;99.90
39503;DHT22;26970;49.900;10.774;2022-08-18T14:45:28;26.60;99.90
39503;DHT22;26970;49.900;10.774;2022-08-18T14:47:55;26.70;99.90
39503;DHT22;26970;49.900;10.774;2022-08-18T14:50:21;26.90;99.90
39503;DHT22;26970;49.900;10.774;2022-08-18T14:52:47;26.80;99.90
39503;DHT22;26970;49.900;10.774;2022-08-18T14:55:14;26.80;99.90
39503;DHT22;26970;49.900;10.774;2022-08-18T14:57:40;26.70;99.90
39503;DHT22;26970;49.900;10.774;2022-08-18T15:00:10;26.80;99.90
39503;DHT22;26970;49.900;10.774;2022-08-18T15:02:37;26.90;99.90
39503;DHT22;26970;49.900;10.774;2022-08-18T15:05:04;27.00;99.90
39503;DHT22;26970;49.900;10.774;2022-08-18T15:07:30;27.00;99.90
39503;DHT22;26970;49.900;10.774;2022-08-18T15:09:55;27.00;99.90
39503;DHT22;26970;49.900;10.774;2022-08-18T15:12:23;26.90;99.90
39503;DHT22;26970;49.900;10.774;2022-08-18T15:14:49;26.70;99.90
39503;DHT22;26970;49.900;10.774;2022-08-18T15:17:15;26.50;99.90
39503;DHT22;26970;49.900;10.774;2022-08-18T15:19:41;26.60;99.90
39503;DHT22;26970;49.900;10.774;2022-08-18T15:22:08;26.60;99.90
39503;DHT22;26970;49.900;10.774;2022-08-18T15:24:52;26.40;99.90
39503;DHT22;26970;49.900;10.774;2022-08-18T15:27:37;26.40;99.90
39503;DHT22;26970;49.900;10.774;2022-08-18T15:30:11;26.40;99.90
39503;DHT22;26970;49.900;10.774;2022-08-18T15:32:38;26.50;99.90
39503;DHT22;26970;49.900;10.774;2022-08-18T15:35:04;26.60;99.90
39503;DHT22;26970;49.900;10.774;2022-08-18T15:37:33;26.60;99.90
39503;DHT22;26970;49.900;10.774;2022-08-18T15:40:17;26.70;99.90
39503;DHT22;26970;49.900;10.774;2022-08-18T15:42:50;26.70;99.90
39503;DHT22;26970;49.900;10.774;2022-08-18T15:45:19;26.60;99.90
39503;DHT22;26970;49.900;10.774;2022-08-18T15:47:45;26.70;99.90
39503;DHT22;26970;49.900;10.774;2022-08-18T15:50:13;26.60;99.90
39503;DHT22;26970;49.900;10.774;2022-08-18T15:52:53;26.60;99.90
39503;DHT22;26970;49.900;10.774;2022-08-18T15:55:21;26.60;99.90
39503;DHT22;26970;49.900;10.774;2022-08-18T15:57:47;26.50;99.90
39503;DHT22;26970;49.900;10.774;2022-08-18T16:00:14;26.60;99.90
39503;DHT22;26970;49.900;10.774;2022-08-18T16:02:48;26.50;99.90
39503;DHT22;26970;49.900;10.774;2022-08-18T16:05:15;26.40;99.90
39503;DHT22;26970;49.900;10.774;2022-08-18T16:07:41;26.30;99.90
39503;DHT22;26970;49.900;10.774;2022-08-18T16:10:13;26.30;99.90
39503;DHT22;26970;49.900;10.774;2022-08-18T16:12:39;26.20;99.90
39503;DHT22;26970;49.900;10.774;2022-08-18T16:15:05;26.10;99.90
39503;DHT22;26970;49.900;10.774;2022-08-18T16:17:32;26.30;99.90
39503;DHT22;26970;49.900;10.774;2022-08-18T16:19:58;26.30;99.90
39503;DHT22;26970;49.900;10.774;2022-08-18T16:22:29;26.20;99.90
39503;DHT22;26970;49.900;10.774;2022-08-18T16:24:57;26.30;99.90
39503;DHT22;26970;49.900;10.774;2022-08-18T16:27:23;26.30;99.90
39503;DHT22;26970;49.900;10.774;2022-08-18T16:29:49;26.40;99.90
39503;DHT22;26970;49.900;10.774;2022-08-18T16:32:14;26.30;99.90
39503;DHT22;26970;49.900;10.774;2022-08-18T16:34:40;26.20;99.90
39503;DHT22;26970;49.900;10.774;2022-08-18T16:37:07;26.30;99.90
39503;DHT22;26970;49.900;10.774;2022-08-18T16:39:33;26.30;99.90
39503;DHT22;26970;49.900;10.774;2022-08-18T16:41:59;26.30;99.90
39503;DHT22;26970;49.900;10.774;2022-08-18T16:44:25;26.30;99.90
39503;DHT22;26970;49.900;10.774;2022-08-18T16:46:51;26.20;99.90
39503;DHT22;26970;49.900;10.774;2022-08-18T16:49:17;26.20;99.90
39503;DHT22;26970;49.900;10.774;2022-08-18T16:51:44;26.20;99.90
39503;DHT22;26970;49.900;10.774;2022-08-18T16:54:09;26.20;99.90
39503;DHT22;26970;49.900;10.774;2022-08-18T16:56:35;26.20;99.90
39503;DHT22;26970;49.900;10.774;2022-08-18T16:59:02;26.20;99.90
39503;DHT22;26970;49.900;10.774;2022-08-18T17:01:46;26.10;99.90
39503;DHT22;26970;49.900;10.774;2022-08-18T17:04:31;26.00;99.90
39503;DHT22;26970;49.900;10.774;2022-08-18T17:07:02;25.90;99.90
39503;DHT22;26970;49.900;10.774;2022-08-18T17:09:29;25.70;99.90
39503;DHT22;26970;49.900;10.774;2022-08-18T17:11:56;25.60;99.90
39503;DHT22;26970;49.900;10.774;2022-08-18T17:14:24;25.60;99.90
39503;DHT22;26970;49.900;10.774;2022-08-18T17:16:51;25.40;99.90
39503;DHT22;26970;49.900;10.774;2022-08-18T17:19:24;25.40;99.90
39503;DHT22;26970;49.900;10.774;2022-08-18T17:21:50;25.40;99.90
39503;DHT22;26970;49.900;10.774;2022-08-18T17:24:16;25.10;99.90
39503;DHT22;26970;49.900;10.774;2022-08-18T17:29:31;25.00;99.90
39503;DHT22;26970;49.900;10.774;2022-08-18T17:32:04;24.90;99.90
39503;DHT22;26970;49.900;10.774;2022-08-18T17:34:34;24.90;99.90
39503;DHT22;26970;49.900;10.774;2022-08-18T17:37:01;24.80;99.90
39503;DHT22;26970;49.900;10.774;2022-08-18T17:39:33;24.80;99.90
39503;DHT22;26970;49.900;10.774;2022-08-18T17:42:00;24.70;99.90
39503;DHT22;26970;49.900;10.774;2022-08-18T17:44:45;24.70;99.90
39503;DHT22;26970;49.900;10.774;2022-08-18T17:47:17;24.60;99.90
39503;DHT22;26970;49.900;10.774;2022-08-18T17:49:44;24.60;99.90
39503;DHT22;26970;49.900;10.774;2022-08-18T17:52:49;24.60;99.90
39503;DHT22;26970;49.900;10.774;2022-08-18T17:55:33;24.50;99.90
39503;DHT22;26970;49.900;10.774;2022-08-18T17:58:03;24.50;99.90